Time;durP1;ratioP1;P1;durP2;ratioP2;P2;SDS_P1;SDS_P2;PMS_P1;PMS_P2;Temp;Humidity;BMP_temperature;BMP_pressure;BME280_temperature;BME280_humidity;BME280_pressure;Samples;Min_cycle;Max_cycle;Signal;HPM_P1;HPM_P2
2022/03/24 00:00:08;;;;;;;2.13;1.10;;;6.90;57.50;;;;;;5134012;28;20043;-69
2022/03/24 00:02:33;;;;;;;1.48;0.80;;;6.90;57.60;;;;;;5134188;28;20467;-69
2022/03/24 00:04:59;;;;;;;1.65;0.90;;;6.80;57.60;;;;;;5133480;28;20039;-69
2022/03/24 00:07:25;;;;;;;1.80;1.10;;;6.80;57.70;;;;;;5133475;28;20035;-69
2022/03/24 00:09:50;;;;;;;1.83;1.00;;;6.80;57.80;;;;;;5133000;27;20041;-68
2022/03/24 00:12:17;;;;;;;1.05;0.73;;;6.80;57.80;;;;;;5133312;28;20130;-69
2022/03/24 00:14:44;;;;;;;1.00;0.90;;;6.80;57.90;;;;;;5133652;28;20066;-70
2022/03/24 00:17:10;;;;;;;1.70;1.00;;;6.70;57.80;;;;;;5115402;28;20069;-69
2022/03/24 00:19:36;;;;;;;2.13;1.08;;;6.70;57.90;;;;;;5133150;28;20067;-69
2022/03/24 00:22:01;;;;;;;1.52;1.17;;;6.60;57.90;;;;;;5133790;28;20042;-69
2022/03/24 00:24:27;;;;;;;1.92;1.00;;;6.60;57.90;;;;;;5133299;28;20422;-69
2022/03/24 00:26:53;;;;;;;1.10;0.80;;;6.60;58.00;;;;;;5133844;28;20087;-69
2022/03/24 00:29:19;;;;;;;1.25;0.85;;;6.60;58.10;;;;;;5133988;28;20431;-69
2022/03/24 00:31:46;;;;;;;2.17;1.00;;;6.60;58.10;;;;;;5133464;28;20035;-69
2022/03/24 00:34:13;;;;;;;1.20;0.77;;;6.50;58.10;;;;;;5133412;28;20485;-69
2022/03/24 00:36:39;;;;;;;1.65;1.20;;;6.50;58.20;;;;;;5133683;28;20061;-69
2022/03/24 00:39:05;;;;;;;1.60;0.93;;;6.40;58.20;;;;;;5133069;28;20047;-69
2022/03/24 00:41:30;;;;;;;2.13;1.10;;;6.40;58.30;;;;;;5133506;28;20527;-69
2022/03/24 00:43:56;;;;;;;2.10;1.08;;;6.40;58.30;;;;;;5133040;28;20046;-69
2022/03/24 00:46:23;;;;;;;1.60;0.90;;;6.50;58.50;;;;;;5133143;28;20107;-69
2022/03/24 00:48:51;;;;;;;2.15;0.98;;;6.30;58.50;;;;;;5133092;28;20489;-69
2022/03/24 00:51:18;;;;;;;1.38;0.98;;;6.30;58.50;;;;;;5114963;28;20122;-69
2022/03/24 00:53:44;;;;;;;1.58;0.80;;;6.30;58.60;;;;;;5133440;28;20051;-69
2022/03/24 00:56:10;;;;;;;1.38;1.05;;;6.20;58.60;;;;;;5132981;28;20039;-69
2022/03/24 00:58:38;;;;;;;1.70;1.00;;;6.30;59.30;;;;;;5133450;28;20127;-69
2022/03/24 01:01:06;;;;;;;1.83;1.00;;;6.20;58.80;;;;;;5114536;28;20406;-69
2022/03/24 01:03:32;;;;;;;1.23;0.90;;;6.10;58.80;;;;;;5133296;28;20560;-69
2022/03/24 01:05:57;;;;;;;1.85;0.93;;;6.20;59.00;;;;;;5133319;28;20027;-69
2022/03/24 01:08:23;;;;;;;1.83;1.00;;;6.10;59.00;;;;;;5132658;28;20046;-69
2022/03/24 01:10:50;;;;;;;2.72;1.02;;;6.00;59.10;;;;;;5133172;28;20394;-69
2022/03/24 01:13:16;;;;;;;1.48;1.00;;;6.10;59.20;;;;;;5132844;28;20509;-69
2022/03/24 01:15:45;;;;;;;1.15;0.70;;;6.00;59.20;;;;;;5114211;28;20139;-69
2022/03/24 01:18:14;;;;;;;1.10;0.90;;;6.00;59.30;;;;;;5132451;28;20096;-69
2022/03/24 01:20:41;;;;;;;0.77;0.70;;;6.00;59.40;;;;;;5132862;27;20062;-69
2022/03/24 01:23:07;;;;;;;2.05;1.10;;;5.90;59.40;;;;;;5136177;28;20477;-69
2022/03/24 01:25:33;;;;;;;1.23;0.95;;;5.80;59.40;;;;;;5136206;28;20046;-69
2022/03/24 01:27:59;;;;;;;2.08;1.20;;;5.90;59.60;;;;;;5136035;28;20039;-69
2022/03/24 01:30:26;;;;;;;1.25;0.80;;;5.80;59.50;;;;;;5117776;28;20402;-69
2022/03/24 01:32:52;;;;;;;1.52;1.00;;;5.80;59.50;;;;;;5136017;28;20039;-69
2022/03/24 01:35:18;;;;;;;1.40;0.90;;;5.80;59.60;;;;;;5135852;28;20035;-69
2022/03/24 01:37:44;;;;;;;3.10;1.05;;;5.80;59.60;;;;;;5100632;28;20080;-69
2022/03/24 01:40:12;;;;;;;1.63;0.90;;;5.70;59.70;;;;;;5136499;28;20044;-69
2022/03/24 01:42:39;;;;;;;1.85;1.05;;;5.70;59.80;;;;;;5136216;28;20038;-69
2022/03/24 01:45:07;;;;;;;1.60;0.93;;;5.70;59.80;;;;;;5099958;28;20122;-69
2022/03/24 01:47:35;;;;;;;1.77;1.00;;;5.70;59.90;;;;;;5117250;28;20471;-69
2022/03/24 01:50:01;;;;;;;1.23;0.77;;;5.60;59.90;;;;;;5116274;28;20035;-69
2022/03/24 01:52:28;;;;;;;1.88;0.90;;;5.70;60.00;;;;;;5117407;28;20035;-69
2022/03/24 01:54:57;;;;;;;1.40;0.77;;;5.60;60.00;;;;;;5135709;28;20035;-69
2022/03/24 01:57:25;;;;;;;1.15;0.90;;;5.60;60.10;;;;;;5135780;28;20049;-69
2022/03/24 01:59:52;;;;;;;1.42;0.80;;;5.50;60.20;;;;;;5116259;28;20048;-69
2022/03/24 02:02:19;;;;;;;0.90;0.80;;;5.50;60.30;;;;;;5135735;28;20398;-69
2022/03/24 02:04:45;;;;;;;1.88;1.10;;;5.50;60.30;;;;;;5117090;28;20043;-69
2022/03/24 02:07:11;;;;;;;1.38;0.77;;;5.50;60.40;;;;;;5135612;28;20509;-69
2022/03/24 02:09:38;;;;;;;1.15;0.80;;;5.50;60.50;;;;;;5135821;28;20058;-69
2022/03/24 02:12:06;;;;;;;1.02;0.80;;;5.40;60.50;;;;;;5135698;28;20502;-69
2022/03/24 02:14:32;;;;;;;1.45;0.90;;;5.50;60.70;;;;;;5135607;28;20043;-69
2022/03/24 02:16:58;;;;;;;1.60;0.90;;;5.40;60.60;;;;;;5135145;28;20095;-69
2022/03/24 02:19:26;;;;;;;1.40;0.98;;;5.40;60.70;;;;;;5135221;28;20074;-69
2022/03/24 02:21:55;;;;;;;2.08;1.00;;;5.30;60.80;;;;;;5117131;28;20043;-69
2022/03/24 02:24:23;;;;;;;2.53;1.25;;;5.30;60.90;;;;;;5117483;28;20172;-69
2022/03/24 02:26:51;;;;;;;1.65;0.98;;;5.40;61.00;;;;;;5135551;28;20084;-69
2022/03/24 02:29:18;;;;;;;1.48;0.75;;;5.30;61.10;;;;;;5116916;28;20133;-69
2022/03/24 02:31:47;;;;;;;1.50;0.85;;;5.20;61.10;;;;;;5135419;28;20039;-69
2022/03/24 02:37:00;;;;;;;1.50;1.02;;;5.20;61.20;;;;;;5134898;28;20070;-69
2022/03/24 02:39:27;;;;;;;1.88;1.05;;;5.20;61.30;;;;;;5135668;28;20500;-69
2022/03/24 02:41:56;;;;;;;1.52;0.90;;;5.10;61.30;;;;;;5135068;28;20115;-69
2022/03/24 02:44:24;;;;;;;1.63;1.00;;;5.10;61.30;;;;;;5135551;28;20035;-70
2022/03/24 02:46:53;;;;;;;2.60;1.10;;;5.10;61.40;;;;;;5134775;28;20443;-69
2022/03/24 02:49:22;;;;;;;1.58;0.90;;;5.00;61.50;;;;;;5116667;28;20055;-69
2022/03/24 02:51:50;;;;;;;1.27;0.80;;;5.00;61.50;;;;;;5116549;28;20123;-69
2022/03/24 02:54:17;;;;;;;1.48;1.10;;;5.00;61.60;;;;;;5134713;28;20042;-69
2022/03/24 02:56:43;;;;;;;2.22;1.17;;;5.00;61.60;;;;;;5135220;28;20439;-69
2022/03/24 02:59:10;;;;;;;1.65;0.98;;;4.90;61.70;;;;;;5134841;28;20039;-69
2022/03/24 03:01:38;;;;;;;1.08;0.85;;;4.90;61.80;;;;;;5134783;28;20042;-69
2022/03/24 03:04:05;;;;;;;0.93;0.80;;;4.90;61.80;;;;;;5116577;28;20035;-69
2022/03/24 03:06:33;;;;;;;1.10;0.70;;;4.80;61.90;;;;;;5134578;28;20038;-69
2022/03/24 03:09:00;;;;;;;1.38;0.80;;;4.80;61.90;;;;;;5134595;28;20070;-69
2022/03/24 03:11:25;;;;;;;2.22;1.17;;;4.80;61.90;;;;;;5134559;28;20043;-69
2022/03/24 03:13:52;;;;;;;1.67;1.00;;;4.80;61.90;;;;;;5134597;28;20035;-69
2022/03/24 03:16:18;;;;;;;1.52;0.77;;;4.80;62.10;;;;;;5134633;28;20110;-69
2022/03/24 03:18:44;;;;;;;1.08;0.85;;;4.60;62.00;;;;;;5134404;28;20044;-69
2022/03/24 03:21:10;;;;;;;1.73;0.90;;;4.60;62.10;;;;;;5134390;28;20066;-69
2022/03/24 03:23:38;;;;;;;1.50;0.90;;;4.70;62.20;;;;;;5134531;28;20039;-69
2022/03/24 03:26:05;;;;;;;0.88;0.80;;;4.60;62.20;;;;;;5116429;28;20371;-69
2022/03/24 03:28:31;;;;;;;1.33;0.88;;;4.70;62.30;;;;;;5134642;28;20198;-69
2022/03/24 03:30:57;;;;;;;1.73;0.93;;;4.60;62.40;;;;;;5134206;28;20039;-69
2022/03/24 03:33:23;;;;;;;1.85;1.00;;;4.50;62.40;;;;;;5134342;28;20372;-69
2022/03/24 03:35:50;;;;;;;1.60;0.90;;;4.50;62.50;;;;;;5133914;28;20035;-69
2022/03/24 03:38:16;;;;;;;2.47;0.90;;;4.50;62.60;;;;;;5134166;28;20130;-69
2022/03/24 03:40:42;;;;;;;2.55;1.10;;;4.50;62.70;;;;;;5134085;28;20398;-69
2022/03/24 03:43:10;;;;;;;1.60;0.80;;;4.40;62.70;;;;;;5134151;28;20039;-69
2022/03/24 03:45:37;;;;;;;2.30;1.25;;;4.40;62.70;;;;;;5132550;27;20490;-69
2022/03/24 03:48:04;;;;;;;1.15;0.75;;;4.40;62.80;;;;;;5134205;28;20089;-69
2022/03/24 03:50:30;;;;;;;1.25;0.90;;;4.40;63.50;;;;;;5133927;28;20099;-69
2022/03/24 03:52:56;;;;;;;1.17;0.82;;;4.40;63.00;;;;;;5113916;28;20077;-69
2022/03/24 03:55:22;;;;;;;1.85;0.80;;;4.30;63.00;;;;;;5133861;28;20076;-69
2022/03/24 03:57:48;;;;;;;1.42;1.02;;;4.30;63.10;;;;;;5133584;28;20035;-69
2022/03/24 04:02:54;;;;;;;1.17;0.70;;;4.20;63.20;;;;;;5133530;28;20039;-69
2022/03/24 04:05:25;;;;;;;1.42;0.80;;;4.20;63.20;;;;;;5115526;28;20039;-69
2022/03/24 04:07:52;;;;;;;0.60;0.60;;;4.20;63.20;;;;;;5114644;28;20043;-69
2022/03/24 04:10:18;;;;;;;1.23;0.70;;;4.10;63.20;;;;;;5114062;28;20110;-69
2022/03/24 04:12:44;;;;;;;1.10;0.70;;;4.10;63.30;;;;;;5134109;28;20419;-68
2022/03/24 04:15:10;;;;;;;1.67;0.90;;;4.10;63.40;;;;;;5115476;28;20084;-69
2022/03/24 04:17:37;;;;;;;1.23;0.68;;;4.10;63.40;;;;;;5133364;28;20193;-69
2022/03/24 04:20:04;;;;;;;0.93;0.63;;;4.00;63.40;;;;;;5133351;28;20053;-69
2022/03/24 04:22:30;;;;;;;1.77;0.90;;;4.00;63.50;;;;;;5133501;28;20077;-69
2022/03/24 04:24:56;;;;;;;0.88;0.70;;;4.00;63.60;;;;;;5133385;28;20397;-69
2022/03/24 04:27:21;;;;;;;2.05;0.98;;;4.00;63.70;;;;;;5133182;28;20039;-69
2022/03/24 04:29:48;;;;;;;1.45;0.85;;;3.90;63.60;;;;;;5132999;28;20047;-69
2022/03/24 04:32:14;;;;;;;1.45;0.90;;;3.90;63.70;;;;;;5114913;28;20043;-69
2022/03/24 04:34:41;;;;;;;1.30;0.68;;;3.90;63.70;;;;;;5133068;28;20482;-69
2022/03/24 04:37:06;;;;;;;1.67;0.70;;;3.90;63.80;;;;;;5133177;28;20039;-69
2022/03/24 04:39:33;;;;;;;0.93;0.55;;;3.90;63.80;;;;;;5114776;28;20039;-69
2022/03/24 04:41:58;;;;;;;1.60;0.80;;;3.90;63.80;;;;;;5133601;28;20039;-69
2022/03/24 04:44:24;;;;;;;0.65;0.60;;;3.80;63.80;;;;;;5133393;28;20054;-69
2022/03/24 04:46:51;;;;;;;1.55;0.90;;;3.80;63.90;;;;;;5115262;28;20470;-69
2022/03/24 04:49:16;;;;;;;1.45;0.82;;;3.80;64.00;;;;;;5133318;28;20039;-69
2022/03/24 04:51:42;;;;;;;1.05;0.73;;;3.80;64.00;;;;;;5133365;28;20450;-69
2022/03/24 04:54:08;;;;;;;0.80;0.60;;;3.70;64.00;;;;;;5133524;28;20485;-69
2022/03/24 04:56:34;;;;;;;1.45;0.80;;;3.70;64.10;;;;;;5132357;27;20043;-69
2022/03/24 04:59:00;;;;;;;1.23;0.75;;;3.70;64.20;;;;;;5097762;28;20039;-69
2022/03/24 05:01:27;;;;;;;2.03;0.93;;;3.70;64.30;;;;;;5132799;28;20055;-69
2022/03/24 05:03:53;;;;;;;1.10;0.75;;;3.70;64.40;;;;;;5133176;28;20466;-68
2022/03/24 05:06:18;;;;;;;1.02;0.75;;;3.60;64.40;;;;;;5133000;28;20068;-68
2022/03/24 05:08:44;;;;;;;1.75;0.80;;;3.70;64.50;;;;;;5133555;28;20547;-68
2022/03/24 05:11:10;;;;;;;0.85;0.70;;;3.60;64.60;;;;;;5133500;28;20390;-69
2022/03/24 05:13:36;;;;;;;1.77;1.00;;;3.60;64.60;;;;;;5113527;28;20135;-69
2022/03/24 05:16:01;;;;;;;2.08;0.90;;;3.60;64.70;;;;;;5132860;28;20050;-68
2022/03/24 05:18:27;;;;;;;1.83;0.98;;;3.60;64.70;;;;;;5132880;28;20051;-68
2022/03/24 05:20:53;;;;;;;1.50;0.85;;;3.60;64.80;;;;;;5133050;28;20493;-68
2022/03/24 05:23:19;;;;;;;2.45;1.13;;;3.50;64.80;;;;;;5133032;28;20406;-69
2022/03/24 05:25:47;;;;;;;1.45;1.00;;;3.50;64.90;;;;;;5114529;28;20490;-68
2022/03/24 05:28:14;;;;;;;1.30;0.95;;;3.40;64.90;;;;;;5132898;28;20051;-69
2022/03/24 05:30:40;;;;;;;1.80;1.10;;;3.40;64.90;;;;;;5132631;28;20062;-69
2022/03/24 05:33:07;;;;;;;2.00;0.88;;;3.40;65.00;;;;;;5132616;28;20143;-68
2022/03/24 05:35:35;;;;;;;1.13;0.85;;;3.40;65.00;;;;;;5132341;28;20035;-70
2022/03/24 05:38:05;;;;;;;1.60;0.98;;;3.40;65.10;;;;;;5114788;28;20035;-69
2022/03/24 05:40:31;;;;;;;2.60;1.10;;;3.40;65.30;;;;;;5097365;28;20043;-70
2022/03/24 05:42:58;;;;;;;2.15;1.05;;;3.40;65.30;;;;;;5132576;28;20057;-70
2022/03/24 05:45:24;;;;;;;1.70;1.00;;;3.40;65.30;;;;;;5132952;28;20031;-69
2022/03/24 05:47:50;;;;;;;2.83;1.20;;;3.40;65.30;;;;;;5132921;28;20040;-69
2022/03/24 05:50:17;;;;;;;1.55;0.90;;;3.30;65.30;;;;;;5133203;28;20457;-70
2022/03/24 05:52:43;;;;;;;1.45;0.90;;;3.40;65.40;;;;;;5132423;28;20118;-69
2022/03/24 05:55:09;;;;;;;1.42;1.02;;;3.40;65.40;;;;;;5132631;28;20039;-69
2022/03/24 05:57:35;;;;;;;1.50;1.00;;;3.40;65.40;;;;;;5114164;28;20043;-70
2022/03/24 06:00:06;;;;;;;1.85;1.05;;;3.40;65.40;;;;;;5132356;28;20506;-70
2022/03/24 06:02:32;;;;;;;1.13;0.77;;;3.50;65.50;;;;;;5115605;28;20458;-70
2022/03/24 06:04:59;;;;;;;2.05;1.10;;;3.40;65.30;;;;;;5132873;28;20043;-70
2022/03/24 06:07:25;;;;;;;2.13;1.10;;;3.50;65.40;;;;;;5113989;28;20053;-70
2022/03/24 06:09:50;;;;;;;2.17;1.00;;;3.50;65.40;;;;;;5135653;28;20043;-70
2022/03/24 06:12:18;;;;;;;1.30;1.00;;;3.50;65.30;;;;;;5135899;28;20156;-69
2022/03/24 06:14:44;;;;;;;1.77;1.00;;;3.50;65.30;;;;;;5135647;28;20115;-69
2022/03/24 06:17:09;;;;;;;1.70;0.90;;;3.60;65.30;;;;;;5135665;28;20039;-69
2022/03/24 06:19:36;;;;;;;1.45;0.90;;;3.60;65.40;;;;;;5135691;28;20047;-69
2022/03/24 06:22:04;;;;;;;1.50;1.00;;;3.60;65.30;;;;;;5135823;28;20035;-69
2022/03/24 06:24:31;;;;;;;1.35;0.82;;;3.70;65.30;;;;;;5136050;28;20039;-69
2022/03/24 06:26:58;;;;;;;1.48;0.80;;;3.70;65.20;;;;;;5135851;28;20084;-69
2022/03/24 06:29:24;;;;;;;1.75;0.90;;;3.80;65.10;;;;;;5135560;28;20047;-69
2022/03/24 06:31:50;;;;;;;2.08;1.08;;;3.80;65.00;;;;;;5135295;28;20082;-69
2022/03/24 06:34:16;;;;;;;2.60;1.30;;;4.00;65.00;;;;;;5117083;28;20489;-69
2022/03/24 06:36:42;;;;;;;1.83;1.10;;;4.00;65.00;;;;;;5117177;28;20122;-69
2022/03/24 06:39:08;;;;;;;2.50;1.20;;;4.10;65.00;;;;;;5135135;28;20126;-69
2022/03/24 06:41:34;;;;;;;2.03;1.05;;;4.20;64.90;;;;;;5117170;28;20042;-69
2022/03/24 06:44:04;;;;;;;1.92;1.10;;;4.30;64.90;;;;;;5135446;28;20103;-69
2022/03/24 06:46:32;;;;;;;1.90;1.08;;;4.30;64.80;;;;;;5117328;28;20063;-69
2022/03/24 06:48:58;;;;;;;1.77;1.08;;;4.40;64.80;;;;;;5135775;28;20074;-70
2022/03/24 06:51:23;;;;;;;1.63;0.90;;;4.50;64.80;;;;;;5116706;28;20062;-70
2022/03/24 06:53:49;;;;;;;1.65;0.82;;;4.60;64.70;;;;;;5134819;28;20043;-70
2022/03/24 06:56:15;;;;;;;1.90;0.90;;;4.80;64.70;;;;;;5134978;28;20046;-68
2022/03/24 06:58:43;;;;;;;1.75;1.08;;;4.80;64.60;;;;;;5134874;28;20099;-70
2022/03/24 07:01:10;;;;;;;1.17;0.80;;;4.90;64.50;;;;;;5116432;28;20631;-68
2022/03/24 07:03:36;;;;;;;1.80;1.00;;;5.00;64.40;;;;;;5134931;28;20035;-68
2022/03/24 07:06:02;;;;;;;1.83;0.90;;;5.10;64.30;;;;;;5116487;28;20039;-68
2022/03/24 07:08:28;;;;;;;1.13;0.80;;;5.20;64.20;;;;;;5134929;28;20039;-68
2022/03/24 07:10:54;;;;;;;1.85;1.00;;;5.30;64.10;;;;;;5134972;28;20383;-68
2022/03/24 07:13:20;;;;;;;1.52;0.93;;;5.40;64.00;;;;;;5134479;28;20039;-68
2022/03/24 07:15:46;;;;;;;1.63;0.85;;;5.60;64.00;;;;;;5134543;28;20047;-67
2022/03/24 07:18:12;;;;;;;1.73;0.95;;;5.60;63.80;;;;;;5134450;28;20035;-68
2022/03/24 07:20:38;;;;;;;1.48;1.00;;;5.80;63.70;;;;;;5133900;27;20046;-70
2022/03/24 07:23:06;;;;;;;1.15;0.82;;;5.90;63.70;;;;;;5134291;28;20394;-67
2022/03/24 07:25:32;;;;;;;2.15;1.20;;;6.00;63.60;;;;;;5134112;28;20039;-70
2022/03/24 07:27:59;;;;;;;1.65;0.93;;;6.20;63.50;;;;;;5115941;28;20041;-69
2022/03/24 07:30:26;;;;;;;1.67;0.95;;;6.40;63.40;;;;;;5116045;28;20530;-69
2022/03/24 07:32:56;;;;;;;1.40;0.90;;;6.40;63.10;;;;;;5134503;28;20031;-69
2022/03/24 07:35:24;;;;;;;1.77;0.98;;;6.60;63.00;;;;;;5134362;28;20035;-67
2022/03/24 07:37:51;;;;;;;1.80;1.27;;;6.70;62.90;;;;;;5134308;28;20063;-67
2022/03/24 07:40:18;;;;;;;2.72;1.20;;;6.90;62.70;;;;;;5134606;28;20543;-69
2022/03/24 07:42:45;;;;;;;2.05;1.17;;;7.10;62.50;;;;;;5134348;28;20118;-69
2022/03/24 07:45:12;;;;;;;2.17;1.20;;;7.20;62.40;;;;;;5134613;28;20035;-68
2022/03/24 07:48:14;;;;;;;3.10;1.20;;;7.40;62.20;;;;;;5134322;28;20038;-68
2022/03/24 07:50:43;;;;;;;2.80;1.40;;;7.50;62.00;;;;;;5134096;28;20035;-68
2022/03/24 07:53:19;;;;;;;1.83;1.00;;;7.70;61.90;;;;;;5115946;28;20066;-68
2022/03/24 07:55:46;;;;;;;1.88;1.10;;;7.80;61.70;;;;;;5133952;28;20051;-69
2022/03/24 07:58:15;;;;;;;2.13;1.27;;;8.00;61.50;;;;;;5134581;28;20045;-69
2022/03/24 08:00:42;;;;;;;1.85;1.08;;;8.20;61.40;;;;;;5133767;28;20039;-69
2022/03/24 08:03:11;;;;;;;1.42;0.90;;;8.30;61.30;;;;;;5134184;28;20508;-68
2022/03/24 08:05:37;;;;;;;1.40;0.80;;;8.50;61.30;;;;;;5134121;28;20113;-69
2022/03/24 08:08:05;;;;;;;1.25;1.00;;;8.70;61.20;;;;;;5115563;28;20073;-69
2022/03/24 08:10:31;;;;;;;3.85;1.77;;;8.90;61.10;;;;;;5115419;28;20088;-68
2022/03/24 08:12:56;;;;;;;2.47;1.20;;;9.10;61.10;;;;;;5133766;28;20432;-68
2022/03/24 08:15:23;;;;;;;1.50;1.00;;;9.20;60.90;;;;;;5133801;28;20076;-68
2022/03/24 08:17:48;;;;;;;2.25;1.25;;;9.40;60.80;;;;;;5133799;28;20569;-69
2022/03/24 08:20:15;;;;;;;2.05;1.10;;;9.70;60.80;;;;;;5115297;28;20142;-68
2022/03/24 08:22:41;;;;;;;2.22;1.30;;;9.80;60.50;;;;;;5133536;28;20060;-69
2022/03/24 08:25:09;;;;;;;4.45;1.30;;;10.00;60.30;;;;;;5115475;28;20035;-68
2022/03/24 08:27:36;;;;;;;2.20;1.30;;;10.30;60.10;;;;;;5133663;28;20039;-68
2022/03/24 08:30:04;;;;;;;3.22;1.70;;;10.50;59.90;;;;;;5114285;27;20047;-68
2022/03/24 08:32:29;;;;;;;1.95;1.30;;;10.70;59.60;;;;;;5132984;28;20128;-68
2022/03/24 08:34:55;;;;;;;3.45;1.45;;;10.90;59.40;;;;;;5113541;28;20511;-68
2022/03/24 08:37:21;;;;;;;2.45;1.50;;;11.20;59.20;;;;;;5133968;28;20405;-68
2022/03/24 08:39:47;;;;;;;1.88;1.20;;;11.40;59.10;;;;;;5133276;28;20043;-68
2022/03/24 08:42:12;;;;;;;2.40;1.50;;;11.50;58.80;;;;;;5115256;28;20038;-68
2022/03/24 08:44:38;;;;;;;3.13;1.90;;;11.70;58.60;;;;;;5133433;28;20039;-68
2022/03/24 08:47:05;;;;;;;2.85;1.73;;;11.90;58.30;;;;;;5133788;28;20050;-69
2022/03/24 08:49:31;;;;;;;3.17;1.73;;;12.10;58.10;;;;;;5133117;28;20042;-69
2022/03/24 08:51:57;;;;;;;3.08;1.48;;;12.30;57.70;;;;;;5097964;28;20043;-69
2022/03/24 08:54:24;;;;;;;3.60;1.85;;;12.50;57.60;;;;;;5133371;28;20062;-69
2022/03/24 08:56:50;;;;;;;2.85;1.67;;;12.70;57.50;;;;;;5114996;28;20065;-69
2022/03/24 08:59:16;;;;;;;2.97;1.60;;;12.80;57.30;;;;;;5133709;28;20051;-68
2022/03/24 09:01:43;;;;;;;2.85;1.80;;;13.00;57.10;;;;;;5115258;28;20427;-70
2022/03/24 09:04:10;;;;;;;3.10;1.50;;;13.20;56.90;;;;;;5133025;28;20039;-69
2022/03/24 09:06:37;;;;;;;2.72;1.60;;;13.40;56.60;;;;;;5133388;28;20046;-69
2022/03/24 09:09:04;;;;;;;3.15;1.80;;;13.50;56.40;;;;;;5114826;28;20043;-69
2022/03/24 09:11:29;;;;;;;3.42;1.90;;;13.60;56.20;;;;;;5132879;28;20569;-68
2022/03/24 09:13:55;;;;;;;3.28;1.85;;;13.80;56.00;;;;;;5133082;28;20062;-68
2022/03/24 09:16:21;;;;;;;3.33;1.98;;;13.90;56.40;;;;;;5132742;28;20077;-70
2022/03/24 09:18:47;;;;;;;1.98;1.40;;;14.10;55.60;;;;;;5132738;28;20040;-68
2022/03/24 09:21:14;;;;;;;2.20;1.58;;;14.20;55.50;;;;;;5133084;28;20035;-69
2022/03/24 09:23:40;;;;;;;2.50;1.60;;;14.30;55.30;;;;;;5133105;28;20072;-68
2022/03/24 09:26:08;;;;;;;2.67;1.65;;;14.50;55.20;;;;;;5133075;28;20031;-68
2022/03/24 09:28:33;;;;;;;2.92;1.75;;;14.60;55.10;;;;;;5132849;28;20039;-68
2022/03/24 09:30:59;;;;;;;2.78;1.50;;;14.70;54.90;;;;;;5114784;28;20540;-69
2022/03/24 09:33:25;;;;;;;2.38;1.58;;;14.80;54.70;;;;;;5132876;28;20064;-69
2022/03/24 09:35:51;;;;;;;2.22;1.50;;;14.90;54.60;;;;;;5132874;28;20039;-69
2022/03/24 09:38:17;;;;;;;3.67;1.80;;;15.00;54.50;;;;;;5132518;28;20379;-68
2022/03/24 09:40:44;;;;;;;2.10;1.60;;;15.00;54.40;;;;;;5114943;28;20106;-69
2022/03/24 09:43:10;;;;;;;2.90;1.70;;;15.10;54.30;;;;;;5115314;28;20574;-69
2022/03/24 09:45:37;;;;;;;3.58;1.90;;;15.30;54.20;;;;;;5117021;28;20032;-69
2022/03/24 09:48:06;;;;;;;3.65;1.90;;;15.40;53.90;;;;;;5136622;28;20486;-69
2022/03/24 09:50:34;;;;;;;3.53;2.05;;;15.50;53.80;;;;;;5136278;28;20039;-69
2022/03/24 09:53:01;;;;;;;3.65;2.20;;;15.60;53.70;;;;;;5132186;28;20092;-69
2022/03/24 09:55:30;;;;;;;3.15;1.98;;;15.70;53.60;;;;;;5136161;28;20478;-69
2022/03/24 09:57:57;;;;;;;3.40;2.00;;;15.80;53.40;;;;;;5136449;28;20047;-69
2022/03/24 10:00:23;;;;;;;4.60;2.50;;;15.80;53.30;;;;;;5136318;28;20038;-69
2022/03/24 10:03:09;;;;;;;4.18;2.10;;;15.90;53.10;;;;;;5118057;28;20122;-69
2022/03/24 10:05:35;;;;;;;3.15;2.13;;;16.00;53.00;;;;;;5117727;28;20035;-69
2022/03/24 10:08:05;;;;;;;4.53;1.83;;;16.10;52.90;;;;;;5136016;28;20104;-70
2022/03/24 10:10:34;;;;;;;2.22;1.48;;;16.10;52.80;;;;;;5136239;28;20046;-69
2022/03/24 10:13:02;;;;;;;3.78;2.28;;;16.20;52.80;;;;;;5136127;28;20027;-69
2022/03/24 10:15:28;;;;;;;3.22;1.85;;;16.30;52.70;;;;;;5135896;28;20079;-69
2022/03/24 10:17:56;;;;;;;2.75;1.80;;;16.40;52.70;;;;;;5135951;28;20130;-69
2022/03/24 10:20:26;;;;;;;3.70;2.03;;;16.40;52.60;;;;;;5135741;28;20042;-69
2022/03/24 10:22:55;;;;;;;2.50;1.60;;;16.50;53.10;;;;;;5135851;28;20084;-69
2022/03/24 10:25:23;;;;;;;3.15;1.85;;;16.50;52.50;;;;;;5136061;28;20088;-69
2022/03/24 10:28:06;;;;;;;3.90;2.00;;;16.50;52.30;;;;;;5135712;28;20039;-69
2022/03/24 10:30:50;;;;;;;3.75;2.13;;;16.60;52.20;;;;;;5117313;28;20047;-69
2022/03/24 10:33:36;;;;;;;3.97;2.25;;;16.60;52.10;;;;;;5116656;28;20490;-70
2022/03/24 10:36:08;;;;;;;3.08;2.00;;;16.60;52.00;;;;;;5135537;28;20047;-69
2022/03/24 10:38:37;;;;;;;2.63;1.67;;;16.70;52.00;;;;;;5135385;28;20173;-69
2022/03/24 10:41:22;;;;;;;3.33;2.05;;;16.80;52.00;;;;;;5135738;28;20066;-69
2022/03/24 10:43:49;;;;;;;2.35;1.52;;;16.80;51.80;;;;;;5117500;28;20050;-69
2022/03/24 10:46:18;;;;;;;3.78;2.28;;;16.80;51.80;;;;;;5135740;28;20040;-69
2022/03/24 10:48:47;;;;;;;3.88;2.00;;;16.90;52.30;;;;;;5099797;28;20466;-69
2022/03/24 10:51:27;;;;;;;3.33;2.08;;;16.90;51.70;;;;;;5116931;28;20051;-68
2022/03/24 10:54:10;;;;;;;2.40;1.63;;;17.00;51.50;;;;;;5134467;27;20107;-68
2022/03/24 10:56:43;;;;;;;3.50;2.10;;;17.10;51.40;;;;;;5135655;28;20039;-68
2022/03/24 10:59:10;;;;;;;3.10;1.80;;;17.20;51.30;;;;;;5135606;28;20046;-69
2022/03/24 11:01:37;;;;;;;5.05;1.75;;;17.30;51.20;;;;;;5135755;28;20050;-68
2022/03/24 11:04:03;;;;;;;3.08;1.90;;;17.30;51.10;;;;;;5134954;28;20046;-68
2022/03/24 11:06:30;;;;;;;2.97;1.70;;;17.40;50.90;;;;;;5135008;28;20032;-68
2022/03/24 11:08:59;;;;;;;2.67;1.77;;;17.50;50.70;;;;;;5135126;28;20047;-67
2022/03/24 11:11:26;;;;;;;3.60;1.90;;;17.50;50.60;;;;;;5135229;28;20098;-67
2022/03/24 11:13:57;;;;;;;3.88;2.10;;;17.70;50.50;;;;;;5134556;28;20039;-68
2022/03/24 11:16:26;;;;;;;3.40;1.88;;;17.70;50.10;;;;;;5134716;28;20031;-68
2022/03/24 11:18:53;;;;;;;4.45;1.95;;;17.80;50.00;;;;;;5115988;28;20387;-68
2022/03/24 11:21:33;;;;;;;3.85;2.08;;;17.80;49.90;;;;;;5134927;28;20051;-68
2022/03/24 11:23:59;;;;;;;5.10;2.53;;;17.80;49.80;;;;;;5135081;28;20076;-68
2022/03/24 11:26:26;;;;;;;4.75;2.20;;;17.90;49.80;;;;;;5114167;28;20130;-68
2022/03/24 11:28:54;;;;;;;3.50;1.90;;;17.90;49.60;;;;;;5134866;28;20038;-67
2022/03/24 11:31:20;;;;;;;4.93;2.28;;;17.90;49.60;;;;;;5134915;28;20050;-68
2022/03/24 11:33:48;;;;;;;3.75;2.05;;;18.00;49.60;;;;;;5134413;28;20079;-68
2022/03/24 11:36:17;;;;;;;4.07;2.28;;;18.00;49.50;;;;;;5114737;28;20043;-68
2022/03/24 11:38:46;;;;;;;3.97;2.40;;;18.10;49.40;;;;;;5134799;28;20486;-70
2022/03/24 11:41:22;;;;;;;4.30;2.17;;;18.10;49.20;;;;;;5134592;28;20042;-69
2022/03/24 11:43:52;;;;;;;4.57;2.53;;;18.20;49.00;;;;;;5134749;28;20501;-70
2022/03/24 11:46:54;;;;;;;4.53;2.25;;;18.30;48.90;;;;;;5134798;28;20469;-67
2022/03/24 11:49:29;;;;;;;3.50;1.88;;;18.40;48.90;;;;;;5134379;28;20043;-68
2022/03/24 11:52:22;;;;;;;4.47;2.00;;;18.50;48.80;;;;;;5115909;28;20050;-67
2022/03/24 11:54:52;;;;;;;2.55;1.63;;;18.60;48.70;;;;;;5119964;28;20070;-67
2022/03/24 11:57:31;;;;;;;2.63;1.67;;;18.70;48.60;;;;;;5133731;28;20038;-69
2022/03/24 12:00:28;;;;;;;2.25;1.70;;;18.80;48.50;;;;;;5133813;28;20569;-68
2022/03/24 12:02:59;;;;;;;1.63;1.35;;;18.90;48.40;;;;;;5117184;28;20039;-68
2022/03/24 12:05:47;;;;;;;3.58;2.10;;;19.10;48.30;;;;;;5132938;27;20050;-68
2022/03/24 12:08:13;;;;;;;3.08;1.90;;;19.20;48.00;;;;;;5134468;28;20035;-67
2022/03/24 12:10:38;;;;;;;4.50;2.38;;;19.30;47.90;;;;;;5134269;28;20635;-69
2022/03/24 12:13:21;;;;;;;5.70;2.60;;;19.30;47.80;;;;;;5133612;28;20110;-68
2022/03/24 12:16:11;;;;;;;3.38;2.03;;;19.40;47.70;;;;;;5133791;28;20106;-68
2022/03/24 12:18:44;;;;;;;3.97;2.40;;;19.50;47.60;;;;;;5134259;28;20512;-67
2022/03/24 12:21:20;;;;;;;4.03;1.95;;;19.60;47.40;;;;;;5133996;28;20035;-68
2022/03/24 12:24:09;;;;;;;2.95;1.83;;;19.60;47.30;;;;;;5134167;28;20068;-67
2022/03/24 12:26:48;;;;;;;4.22;2.40;;;19.70;47.40;;;;;;5115511;28;20482;-67
2022/03/24 12:29:22;;;;;;;3.72;2.25;;;19.70;47.40;;;;;;5133892;28;20040;-68
2022/03/24 12:32:01;;;;;;;4.55;2.10;;;19.80;47.50;;;;;;5134094;28;20473;-68
2022/03/24 12:34:44;;;;;;;3.75;2.08;;;19.80;47.30;;;;;;5133508;28;20500;-68
2022/03/24 12:37:39;;;;;;;5.10;2.83;;;19.90;47.20;;;;;;5133779;28;20031;-67
2022/03/24 12:40:11;;;;;;;4.68;2.90;;;19.90;47.00;;;;;;5133655;28;20098;-67
2022/03/24 12:42:49;;;;;;;3.63;2.30;;;19.90;46.80;;;;;;5133591;28;20470;-67
2022/03/24 12:45:36;;;;;;;4.18;2.40;;;19.80;46.80;;;;;;5114644;28;20401;-68
2022/03/24 12:48:12;;;;;;;4.93;2.58;;;19.80;46.80;;;;;;5133135;28;20028;-67
2022/03/24 12:50:47;;;;;;;4.65;2.75;;;19.90;46.90;;;;;;5115211;28;20047;-67
2022/03/24 12:53:13;;;;;;;4.50;2.88;;;20.00;46.80;;;;;;5114770;28;20051;-68
2022/03/24 12:55:42;;;;;;;4.50;2.67;;;20.00;46.60;;;;;;5113637;28;20035;-68
2022/03/24 12:58:14;;;;;;;5.30;2.40;;;20.00;46.60;;;;;;5113330;28;20047;-68
2022/03/24 13:00:42;;;;;;;4.90;2.47;;;19.90;46.50;;;;;;5133117;28;20056;-68
2022/03/24 13:03:10;;;;;;;3.10;2.00;;;19.90;46.50;;;;;;5114777;28;20039;-68